sensor_id;sensor_type;location;lat;lon;timestamp;pressure;altitude;pressure_sealevel;temperature;humidity
49709;BME280;35601;55.902;13.606;2023-04-26T00:02:20;99724.90;;;3.03;70.17
49709;BME280;35601;55.902;13.606;2023-04-26T00:04:45;99726.48;;;3.22;70.72
49709;BME280;35601;55.902;13.606;2023-04-26T00:07:10;99725.63;;;3.27;70.81
49709;BME280;35601;55.902;13.606;2023-04-26T00:09:35;99727.55;;;3.28;70.67
49709;BME280;35601;55.902;13.606;2023-04-26T00:12:01;99727.29;;;3.22;70.65
49709;BME280;35601;55.902;13.606;2023-04-26T00:14:27;99723.92;;;3.18;71.02
49709;BME280;35601;55.902;13.606;2023-04-26T00:16:54;99723.05;;;2.82;70.82
49709;BME280;35601;55.902;13.606;2023-04-26T00:19:19;99721.50;;;3.26;70.73
49709;BME280;35601;55.902;13.606;2023-04-26T00:21:44;99723.80;;;3.07;71.18
49709;BME280;35601;55.902;13.606;2023-04-26T00:24:10;99722.05;;;3.35;71.02
49709;BME280;35601;55.902;13.606;2023-04-26T00:26:36;99720.34;;;3.02;71.49
49709;BME280;35601;55.902;13.606;2023-04-26T00:29:01;99723.18;;;3.03;71.40
49709;BME280;35601;55.902;13.606;2023-04-26T00:31:26;99725.02;;;2.91;71.13
49709;BME280;35601;55.902;13.606;2023-04-26T00:33:52;99724.08;;;2.89;71.85
49709;BME280;35601;55.902;13.606;2023-04-26T00:36:17;99722.01;;;3.23;71.59
49709;BME280;35601;55.902;13.606;2023-04-26T00:38:43;99720.83;;;3.32;71.28
49709;BME280;35601;55.902;13.606;2023-04-26T00:41:09;99721.68;;;3.22;71.12
49709;BME280;35601;55.902;13.606;2023-04-26T00:43:34;99722.91;;;3.14;70.84
49709;BME280;35601;55.902;13.606;2023-04-26T00:45:59;99721.49;;;3.15;70.85
49709;BME280;35601;55.902;13.606;2023-04-26T00:48:25;99724.56;;;3.21;71.22
49709;BME280;35601;55.902;13.606;2023-04-26T00:50:51;99724.84;;;3.42;71.12
49709;BME280;35601;55.902;13.606;2023-04-26T00:53:16;99723.08;;;3.25;70.74
49709;BME280;35601;55.902;13.606;2023-04-26T00:55:42;99726.84;;;3.32;71.14
49709;BME280;35601;55.902;13.606;2023-04-26T00:58:07;99728.20;;;3.42;71.37
49709;BME280;35601;55.902;13.606;2023-04-26T01:00:33;99728.08;;;3.18;70.65
49709;BME280;35601;55.902;13.606;2023-04-26T01:02:57;99728.57;;;3.25;70.69
49709;BME280;35601;55.902;13.606;2023-04-26T01:05:23;99729.01;;;3.45;70.67
49709;BME280;35601;55.902;13.606;2023-04-26T01:07:49;99730.18;;;3.08;70.52
49709;BME280;35601;55.902;13.606;2023-04-26T01:10:13;99731.76;;;3.39;70.41
49709;BME280;35601;55.902;13.606;2023-04-26T01:12:39;99729.60;;;3.34;70.78
49709;BME280;35601;55.902;13.606;2023-04-26T01:15:06;99728.41;;;3.21;70.67
49709;BME280;35601;55.902;13.606;2023-04-26T01:17:30;99728.72;;;3.03;70.82
49709;BME280;35601;55.902;13.606;2023-04-26T01:19:56;99732.92;;;3.46;70.83
49709;BME280;35601;55.902;13.606;2023-04-26T01:22:20;99732.06;;;3.27;70.52
49709;BME280;35601;55.902;13.606;2023-04-26T01:24:49;99730.01;;;3.31;70.93
49709;BME280;35601;55.902;13.606;2023-04-26T01:27:11;99731.04;;;3.06;70.91
49709;BME280;35601;55.902;13.606;2023-04-26T01:29:37;99732.08;;;3.14;71.62
49709;BME280;35601;55.902;13.606;2023-04-26T01:32:03;99731.43;;;3.12;72.17
49709;BME280;35601;55.902;13.606;2023-04-26T01:34:28;99734.33;;;3.36;71.82
49709;BME280;35601;55.902;13.606;2023-04-26T01:36:53;99731.10;;;3.06;72.07
49709;BME280;35601;55.902;13.606;2023-04-26T01:39:21;99734.08;;;3.08;72.16
49709;BME280;35601;55.902;13.606;2023-04-26T01:41:45;99739.29;;;2.93;72.61
49709;BME280;35601;55.902;13.606;2023-04-26T01:44:09;99740.56;;;2.79;72.82
49709;BME280;35601;55.902;13.606;2023-04-26T01:46:35;99739.62;;;2.83;72.97
49709;BME280;35601;55.902;13.606;2023-04-26T01:49:00;99741.53;;;2.72;73.32
49709;BME280;35601;55.902;13.606;2023-04-26T01:51:26;99741.93;;;2.71;73.01
49709;BME280;35601;55.902;13.606;2023-04-26T01:53:52;99744.71;;;2.50;74.18
49709;BME280;35601;55.902;13.606;2023-04-26T01:56:17;99743.63;;;2.69;73.78
49709;BME280;35601;55.902;13.606;2023-04-26T01:58:42;99745.40;;;2.46;73.96
49709;BME280;35601;55.902;13.606;2023-04-26T02:01:08;99748.58;;;2.30;74.73
49709;BME280;35601;55.902;13.606;2023-04-26T02:03:33;99746.69;;;2.41;75.16
49709;BME280;35601;55.902;13.606;2023-04-26T02:05:59;99748.20;;;2.22;75.66
49709;BME280;35601;55.902;13.606;2023-04-26T02:08:26;99750.90;;;2.21;76.09
49709;BME280;35601;55.902;13.606;2023-04-26T02:10:51;99751.31;;;2.77;76.83
49709;BME280;35601;55.902;13.606;2023-04-26T02:13:16;99750.80;;;2.04;78.39
49709;BME280;35601;55.902;13.606;2023-04-26T02:15:40;99750.06;;;1.86;79.57
49709;BME280;35601;55.902;13.606;2023-04-26T02:18:05;99751.05;;;1.98;80.39
49709;BME280;35601;55.902;13.606;2023-04-26T02:20:31;99750.01;;;2.19;80.39
49709;BME280;35601;55.902;13.606;2023-04-26T02:22:56;99747.02;;;2.21;80.67
49709;BME280;35601;55.902;13.606;2023-04-26T02:25:22;99746.63;;;2.38;80.70
49709;BME280;35601;55.902;13.606;2023-04-26T02:27:47;99745.91;;;2.43;80.69
49709;BME280;35601;55.902;13.606;2023-04-26T02:30:13;99744.57;;;2.45;80.84
49709;BME280;35601;55.902;13.606;2023-04-26T02:32:39;99744.42;;;2.37;80.67
49709;BME280;35601;55.902;13.606;2023-04-26T02:35:04;99745.06;;;2.50;80.78
49709;BME280;35601;55.902;13.606;2023-04-26T02:37:31;99748.86;;;2.58;81.00
49709;BME280;35601;55.902;13.606;2023-04-26T02:39:55;99745.62;;;2.28;80.76
49709;BME280;35601;55.902;13.606;2023-04-26T02:42:20;99750.12;;;2.36;80.65
49709;BME280;35601;55.902;13.606;2023-04-26T02:44:46;99748.00;;;2.24;80.58
49709;BME280;35601;55.902;13.606;2023-04-26T02:47:12;99746.76;;;2.63;80.19
49709;BME280;35601;55.902;13.606;2023-04-26T02:49:37;99749.33;;;2.33;80.73
49709;BME280;35601;55.902;13.606;2023-04-26T02:52:03;99751.56;;;2.46;81.19
49709;BME280;35601;55.902;13.606;2023-04-26T02:54:29;99756.25;;;2.40;80.99
49709;BME280;35601;55.902;13.606;2023-04-26T02:56:54;99755.78;;;2.32;80.98
49709;BME280;35601;55.902;13.606;2023-04-26T02:59:19;99757.87;;;2.23;80.95
49709;BME280;35601;55.902;13.606;2023-04-26T03:01:45;99755.12;;;2.16;80.77
49709;BME280;35601;55.902;13.606;2023-04-26T03:04:10;99756.49;;;2.14;80.69
49709;BME280;35601;55.902;13.606;2023-04-26T03:06:35;99752.44;;;2.09;80.68
49709;BME280;35601;55.902;13.606;2023-04-26T03:09:00;99750.45;;;2.15;80.61
49709;BME280;35601;55.902;13.606;2023-04-26T03:11:26;99746.05;;;2.11;80.62
49709;BME280;35601;55.902;13.606;2023-04-26T03:13:51;99751.59;;;2.01;80.25
49709;BME280;35601;55.902;13.606;2023-04-26T03:16:18;99756.10;;;2.22;80.67
49709;BME280;35601;55.902;13.606;2023-04-26T03:18:42;99756.71;;;2.04;80.44
49709;BME280;35601;55.902;13.606;2023-04-26T03:21:07;99752.93;;;1.98;80.47
49709;BME280;35601;55.902;13.606;2023-04-26T03:23:32;99754.33;;;2.02;80.23
49709;BME280;35601;55.902;13.606;2023-04-26T03:25:59;99753.61;;;1.89;79.98
49709;BME280;35601;55.902;13.606;2023-04-26T03:28:24;99756.09;;;2.03;79.89
49709;BME280;35601;55.902;13.606;2023-04-26T03:30:48;99756.59;;;1.88;79.25
49709;BME280;35601;55.902;13.606;2023-04-26T03:33:13;99757.69;;;1.97;79.16
49709;BME280;35601;55.902;13.606;2023-04-26T03:35:39;99762.97;;;2.06;79.24
49709;BME280;35601;55.902;13.606;2023-04-26T03:38:04;99764.86;;;2.27;79.39
49709;BME280;35601;55.902;13.606;2023-04-26T03:40:29;99774.48;;;1.93;79.32
49709;BME280;35601;55.902;13.606;2023-04-26T03:42:54;99775.79;;;2.00;79.33
49709;BME280;35601;55.902;13.606;2023-04-26T03:45:21;99776.07;;;2.36;78.73
49709;BME280;35601;55.902;13.606;2023-04-26T03:47:46;99781.10;;;1.94;78.81
49709;BME280;35601;55.902;13.606;2023-04-26T03:50:11;99785.25;;;2.04;78.16
49709;BME280;35601;55.902;13.606;2023-04-26T03:52:36;99784.71;;;2.04;77.20
49709;BME280;35601;55.902;13.606;2023-04-26T03:55:01;99787.84;;;2.04;77.59
49709;BME280;35601;55.902;13.606;2023-04-26T03:57:26;99792.49;;;2.09;76.98
49709;BME280;35601;55.902;13.606;2023-04-26T03:59:52;99794.84;;;2.17;76.25
49709;BME280;35601;55.902;13.606;2023-04-26T04:02:17;99792.12;;;2.02;76.03
49709;BME280;35601;55.902;13.606;2023-04-26T04:04:42;99794.94;;;2.14;75.77
49709;BME280;35601;55.902;13.606;2023-04-26T04:07:08;99793.94;;;1.92;75.91
49709;BME280;35601;55.902;13.606;2023-04-26T04:09:34;99798.73;;;2.13;75.48
49709;BME280;35601;55.902;13.606;2023-04-26T04:11:58;99801.24;;;2.18;75.01
49709;BME280;35601;55.902;13.606;2023-04-26T04:14:25;99802.84;;;2.12;74.77
49709;BME280;35601;55.902;13.606;2023-04-26T04:16:49;99801.86;;;1.99;74.79
49709;BME280;35601;55.902;13.606;2023-04-26T04:19:14;99806.84;;;1.77;74.79
49709;BME280;35601;55.902;13.606;2023-04-26T04:21:40;99806.09;;;1.96;75.20
49709;BME280;35601;55.902;13.606;2023-04-26T04:24:05;99809.14;;;1.87;75.08
49709;BME280;35601;55.902;13.606;2023-04-26T04:26:32;99812.25;;;1.97;75.16
49709;BME280;35601;55.902;13.606;2023-04-26T04:28:56;99814.08;;;1.80;74.87
49709;BME280;35601;55.902;13.606;2023-04-26T04:31:22;99820.49;;;1.62;75.24
49709;BME280;35601;55.902;13.606;2023-04-26T04:33:47;99819.59;;;1.79;74.91
49709;BME280;35601;55.902;13.606;2023-04-26T04:36:12;99820.64;;;1.74;74.82
49709;BME280;35601;55.902;13.606;2023-04-26T04:38:39;99824.59;;;1.86;74.35
49709;BME280;35601;55.902;13.606;2023-04-26T04:41:02;99823.47;;;1.60;74.70
49709;BME280;35601;55.902;13.606;2023-04-26T04:43:28;99828.07;;;1.69;74.80
49709;BME280;35601;55.902;13.606;2023-04-26T04:45:54;99829.33;;;1.60;74.87
49709;BME280;35601;55.902;13.606;2023-04-26T04:48:19;99834.15;;;1.87;75.74
49709;BME280;35601;55.902;13.606;2023-04-26T04:50:45;99837.76;;;1.74;75.72
49709;BME280;35601;55.902;13.606;2023-04-26T04:53:10;99838.12;;;2.07;76.20
49709;BME280;35601;55.902;13.606;2023-04-26T04:55:35;99843.19;;;1.93;74.75
49709;BME280;35601;55.902;13.606;2023-04-26T04:58:02;99839.14;;;2.09;74.92
49709;BME280;35601;55.902;13.606;2023-04-26T05:00:26;99844.45;;;2.29;74.58
49709;BME280;35601;55.902;13.606;2023-04-26T05:02:53;99847.33;;;2.10;73.78
49709;BME280;35601;55.902;13.606;2023-04-26T05:05:17;99845.53;;;1.09;72.19
49709;BME280;35601;55.902;13.606;2023-04-26T05:07:42;99849.91;;;2.22;71.60
49709;BME280;35601;55.902;13.606;2023-04-26T05:10:09;99852.50;;;2.25;71.18
49709;BME280;35601;55.902;13.606;2023-04-26T05:12:32;99849.77;;;2.24;71.17
49709;BME280;35601;55.902;13.606;2023-04-26T05:14:57;99848.43;;;2.41;71.68
49709;BME280;35601;55.902;13.606;2023-04-26T05:17:23;99854.64;;;2.47;70.88
49709;BME280;35601;55.902;13.606;2023-04-26T05:19:48;99852.62;;;2.52;70.84
49709;BME280;35601;55.902;13.606;2023-04-26T05:22:13;99857.34;;;2.36;71.06
49709;BME280;35601;55.902;13.606;2023-04-26T05:24:41;99857.16;;;2.24;70.46
49709;BME280;35601;55.902;13.606;2023-04-26T05:27:04;99863.12;;;2.09;69.24
49709;BME280;35601;55.902;13.606;2023-04-26T05:29:30;99858.74;;;2.18;70.76
49709;BME280;35601;55.902;13.606;2023-04-26T05:31:55;99866.58;;;2.23;70.02
49709;BME280;35601;55.902;13.606;2023-04-26T05:34:21;99871.42;;;2.16;69.85
49709;BME280;35601;55.902;13.606;2023-04-26T05:36:46;99879.17;;;1.86;70.42
49709;BME280;35601;55.902;13.606;2023-04-26T05:39:11;99882.30;;;2.02;70.03
49709;BME280;35601;55.902;13.606;2023-04-26T05:41:36;99886.04;;;2.11;70.80
49709;BME280;35601;55.902;13.606;2023-04-26T05:44:02;99886.57;;;2.22;70.95
49709;BME280;35601;55.902;13.606;2023-04-26T05:46:27;99889.50;;;2.39;70.41
49709;BME280;35601;55.902;13.606;2023-04-26T05:48:54;99889.35;;;2.49;70.98
49709;BME280;35601;55.902;13.606;2023-04-26T05:51:19;99887.42;;;2.82;69.92
49709;BME280;35601;55.902;13.606;2023-04-26T05:53:43;99891.71;;;3.06;68.66
49709;BME280;35601;55.902;13.606;2023-04-26T05:56:08;99891.65;;;3.07;67.49
49709;BME280;35601;55.902;13.606;2023-04-26T05:58:33;99890.21;;;3.36;67.57
49709;BME280;35601;55.902;13.606;2023-04-26T06:00:59;99894.28;;;3.41;67.86
49709;BME280;35601;55.902;13.606;2023-04-26T06:03:26;99892.31;;;3.26;67.70
49709;BME280;35601;55.902;13.606;2023-04-26T06:05:51;99894.85;;;2.95;67.45
49709;BME280;35601;55.902;13.606;2023-04-26T06:08:15;99893.91;;;3.06;67.02
49709;BME280;35601;55.902;13.606;2023-04-26T06:10:40;99893.73;;;2.72;65.75
49709;BME280;35601;55.902;13.606;2023-04-26T06:13:06;99901.96;;;3.13;67.06
49709;BME280;35601;55.902;13.606;2023-04-26T06:15:32;99898.08;;;3.03;65.62
49709;BME280;35601;55.902;13.606;2023-04-26T06:17:58;99901.38;;;3.06;65.21
49709;BME280;35601;55.902;13.606;2023-04-26T06:20:22;99893.19;;;2.79;65.17
49709;BME280;35601;55.902;13.606;2023-04-26T06:22:48;99902.71;;;2.60;67.27
49709;BME280;35601;55.902;13.606;2023-04-26T06:25:13;99898.52;;;2.97;66.32
49709;BME280;35601;55.902;13.606;2023-04-26T06:27:38;99898.00;;;3.19;65.86
49709;BME280;35601;55.902;13.606;2023-04-26T06:30:05;99898.37;;;3.30;64.88
49709;BME280;35601;55.902;13.606;2023-04-26T06:32:29;99904.19;;;3.70;64.43
49709;BME280;35601;55.902;13.606;2023-04-26T06:34:54;99896.37;;;3.52;64.07
49709;BME280;35601;55.902;13.606;2023-04-26T06:37:20;99895.48;;;3.84;63.03
49709;BME280;35601;55.902;13.606;2023-04-26T06:39:46;99898.92;;;3.87;64.00
49709;BME280;35601;55.902;13.606;2023-04-26T06:42:11;99902.90;;;4.05;62.13
49709;BME280;35601;55.902;13.606;2023-04-26T06:44:36;99904.29;;;3.92;61.83
49709;BME280;35601;55.902;13.606;2023-04-26T06:47:02;99904.55;;;4.06;61.50
49709;BME280;35601;55.902;13.606;2023-04-26T06:49:27;99908.27;;;4.29;61.57
49709;BME280;35601;55.902;13.606;2023-04-26T06:51:52;99905.91;;;4.28;60.67
49709;BME280;35601;55.902;13.606;2023-04-26T06:54:18;99915.72;;;4.16;60.57
49709;BME280;35601;55.902;13.606;2023-04-26T06:56:43;99909.59;;;4.36;60.39
49709;BME280;35601;55.902;13.606;2023-04-26T06:59:08;99915.10;;;3.64;60.31
49709;BME280;35601;55.902;13.606;2023-04-26T07:01:34;99920.67;;;4.02;60.22
49709;BME280;35601;55.902;13.606;2023-04-26T07:04:00;99925.57;;;4.33;59.58
49709;BME280;35601;55.902;13.606;2023-04-26T07:06:25;99923.20;;;4.29;59.99
49709;BME280;35601;55.902;13.606;2023-04-26T07:08:49;99922.93;;;4.25;58.86
49709;BME280;35601;55.902;13.606;2023-04-26T07:11:15;99927.61;;;4.54;58.40
49709;BME280;35601;55.902;13.606;2023-04-26T07:13:40;99931.21;;;4.29;57.81
49709;BME280;35601;55.902;13.606;2023-04-26T07:16:06;99925.57;;;4.42;58.00
49709;BME280;35601;55.902;13.606;2023-04-26T07:18:31;99935.19;;;4.48;57.51
49709;BME280;35601;55.902;13.606;2023-04-26T07:20:56;99925.64;;;3.96;57.23
49709;BME280;35601;55.902;13.606;2023-04-26T07:23:22;99929.18;;;4.20;57.31
49709;BME280;35601;55.902;13.606;2023-04-26T07:25:47;99929.97;;;4.49;58.30
49709;BME280;35601;55.902;13.606;2023-04-26T07:28:13;99934.09;;;4.29;55.80
49709;BME280;35601;55.902;13.606;2023-04-26T07:30:38;99938.06;;;4.27;56.59
49709;BME280;35601;55.902;13.606;2023-04-26T07:33:03;99936.55;;;4.16;56.49
49709;BME280;35601;55.902;13.606;2023-04-26T07:35:29;99938.74;;;4.35;56.34
49709;BME280;35601;55.902;13.606;2023-04-26T07:37:54;99934.09;;;4.09;56.52
49709;BME280;35601;55.902;13.606;2023-04-26T07:40:20;99943.80;;;4.21;56.03
49709;BME280;35601;55.902;13.606;2023-04-26T07:42:45;99945.84;;;4.01;55.17
49709;BME280;35601;55.902;13.606;2023-04-26T07:45:11;99945.61;;;4.25;56.06
49709;BME280;35601;55.902;13.606;2023-04-26T07:47:35;99948.56;;;4.71;54.70
49709;BME280;35601;55.902;13.606;2023-04-26T07:50:03;99941.76;;;5.05;55.37
49709;BME280;35601;55.902;13.606;2023-04-26T07:52:26;99946.59;;;4.69;53.84
49709;BME280;35601;55.902;13.606;2023-04-26T07:54:52;99952.94;;;4.92;52.72
49709;BME280;35601;55.902;13.606;2023-04-26T07:57:17;99951.03;;;4.55;52.21
49709;BME280;35601;55.902;13.606;2023-04-26T07:59:42;99956.32;;;4.80;51.34
49709;BME280;35601;55.902;13.606;2023-04-26T08:02:10;99954.45;;;5.18;51.84
49709;BME280;35601;55.902;13.606;2023-04-26T08:04:33;99953.95;;;5.43;50.43
49709;BME280;35601;55.902;13.606;2023-04-26T08:06:58;99954.71;;;5.27;50.02
49709;BME280;35601;55.902;13.606;2023-04-26T08:09:23;99945.52;;;5.85;51.20
49709;BME280;35601;55.902;13.606;2023-04-26T08:11:49;99951.17;;;5.84;47.40
49709;BME280;35601;55.902;13.606;2023-04-26T08:14:14;99964.86;;;5.55;48.51
49709;BME280;35601;55.902;13.606;2023-04-26T08:16:39;99962.32;;;5.48;48.98
49709;BME280;35601;55.902;13.606;2023-04-26T08:19:04;99966.46;;;5.14;47.53
49709;BME280;35601;55.902;13.606;2023-04-26T08:21:30;99966.92;;;5.25;48.56
49709;BME280;35601;55.902;13.606;2023-04-26T08:23:55;99972.05;;;5.63;48.05
49709;BME280;35601;55.902;13.606;2023-04-26T08:26:20;99967.60;;;5.71;49.45
49709;BME280;35601;55.902;13.606;2023-04-26T08:28:46;99976.01;;;5.98;48.84
49709;BME280;35601;55.902;13.606;2023-04-26T08:31:11;99976.21;;;5.94;45.66
49709;BME280;35601;55.902;13.606;2023-04-26T08:33:36;99973.16;;;6.25;45.53
49709;BME280;35601;55.902;13.606;2023-04-26T08:36:04;99979.50;;;6.43;44.78
49709;BME280;35601;55.902;13.606;2023-04-26T08:38:27;99986.61;;;5.88;43.23
49709;BME280;35601;55.902;13.606;2023-04-26T08:40:53;99978.55;;;6.05;44.12
49709;BME280;35601;55.902;13.606;2023-04-26T08:43:17;99975.84;;;6.15;45.81
49709;BME280;35601;55.902;13.606;2023-04-26T08:45:44;99975.41;;;6.48;45.90
49709;BME280;35601;55.902;13.606;2023-04-26T08:48:12;99975.88;;;6.66;46.14
49709;BME280;35601;55.902;13.606;2023-04-26T08:50:35;99993.50;;;6.52;45.62
49709;BME280;35601;55.902;13.606;2023-04-26T08:52:59;99997.72;;;6.30;46.63
49709;BME280;35601;55.902;13.606;2023-04-26T08:55:26;100000.41;;;5.82;47.84
49709;BME280;35601;55.902;13.606;2023-04-26T08:57:50;100000.33;;;5.68;47.31
49709;BME280;35601;55.902;13.606;2023-04-26T09:00:17;99997.57;;;5.50;48.41
49709;BME280;35601;55.902;13.606;2023-04-26T09:02:41;99997.75;;;5.85;47.02
49709;BME280;35601;55.902;13.606;2023-04-26T09:05:06;100002.17;;;6.40;48.70
49709;BME280;35601;55.902;13.606;2023-04-26T09:07:34;100001.19;;;6.13;48.77
49709;BME280;35601;55.902;13.606;2023-04-26T09:09:57;100005.74;;;6.16;45.35
49709;BME280;35601;55.902;13.606;2023-04-26T09:12:21;100013.33;;;6.15;44.05
49709;BME280;35601;55.902;13.606;2023-04-26T09:14:47;100010.01;;;6.43;46.08
49709;BME280;35601;55.902;13.606;2023-04-26T09:17:25;100012.60;;;6.78;45.25
49709;BME280;35601;55.902;13.606;2023-04-26T09:19:38;99997.19;;;6.77;42.18
49709;BME280;35601;55.902;13.606;2023-04-26T09:22:03;100012.07;;;7.33;42.92
49709;BME280;35601;55.902;13.606;2023-04-26T09:24:28;100018.46;;;6.87;41.08
49709;BME280;35601;55.902;13.606;2023-04-26T09:27:01;100014.87;;;6.16;39.82
49709;BME280;35601;55.902;13.606;2023-04-26T09:29:18;100014.62;;;5.83;42.28
49709;BME280;35601;55.902;13.606;2023-04-26T09:31:45;100022.12;;;6.60;42.75
49709;BME280;35601;55.902;13.606;2023-04-26T09:34:10;100026.55;;;6.43;42.83
49709;BME280;35601;55.902;13.606;2023-04-26T09:36:46;100032.26;;;6.21;42.45
49709;BME280;35601;55.902;13.606;2023-04-26T09:39:00;100033.37;;;6.49;43.21
49709;BME280;35601;55.902;13.606;2023-04-26T09:41:41;100034.08;;;5.62;43.25
49709;BME280;35601;55.902;13.606;2023-04-26T09:43:51;100035.68;;;5.61;44.61
49709;BME280;35601;55.902;13.606;2023-04-26T09:46:21;100034.10;;;5.28;44.38
49709;BME280;35601;55.902;13.606;2023-04-26T09:48:41;100037.02;;;5.60;43.65
49709;BME280;35601;55.902;13.606;2023-04-26T09:51:09;100042.66;;;5.84;43.89
49709;BME280;35601;55.902;13.606;2023-04-26T09:53:33;100037.87;;;5.47;45.45
49709;BME280;35601;55.902;13.606;2023-04-26T09:56:05;100035.95;;;6.22;46.75
49709;BME280;35601;55.902;13.606;2023-04-26T09:58:23;100043.19;;;6.27;43.92
49709;BME280;35601;55.902;13.606;2023-04-26T10:00:50;100042.22;;;6.55;42.97
49709;BME280;35601;55.902;13.606;2023-04-26T10:03:12;100044.31;;;6.85;43.93
49709;BME280;35601;55.902;13.606;2023-04-26T10:05:38;100045.42;;;7.44;41.87
49709;BME280;35601;55.902;13.606;2023-04-26T10:08:05;100035.41;;;7.77;41.07
49709;BME280;35601;55.902;13.606;2023-04-26T10:10:29;100033.87;;;7.72;38.67
49709;BME280;35601;55.902;13.606;2023-04-26T10:12:54;100031.46;;;8.04;38.67
49709;BME280;35601;55.902;13.606;2023-04-26T10:15:19;100033.67;;;7.77;37.20
49709;BME280;35601;55.902;13.606;2023-04-26T10:17:45;100044.68;;;6.91;38.00
49709;BME280;35601;55.902;13.606;2023-04-26T10:20:12;100052.59;;;6.96;39.49
49709;BME280;35601;55.902;13.606;2023-04-26T10:22:42;100069.04;;;6.78;38.37
49709;BME280;35601;55.902;13.606;2023-04-26T10:25:00;100072.11;;;6.89;37.75
49709;BME280;35601;55.902;13.606;2023-04-26T10:30:05;100063.34;;;7.13;36.96
49709;BME280;35601;55.902;13.606;2023-04-26T10:32:17;100067.14;;;7.21;37.26
49709;BME280;35601;55.902;13.606;2023-04-26T10:34:42;100065.11;;;7.26;37.34
49709;BME280;35601;55.902;13.606;2023-04-26T10:37:08;100082.64;;;6.89;37.82
49709;BME280;35601;55.902;13.606;2023-04-26T10:39:31;100069.12;;;6.43;37.68
49709;BME280;35601;55.902;13.606;2023-04-26T10:44:36;100082.99;;;6.55;37.85
49709;BME280;35601;55.902;13.606;2023-04-26T10:46:49;100085.20;;;6.39;38.31
49709;BME280;35601;55.902;13.606;2023-04-26T10:49:14;100076.67;;;6.41;37.50
49709;BME280;35601;55.902;13.606;2023-04-26T10:51:38;100089.94;;;6.17;37.55
49709;BME280;35601;55.902;13.606;2023-04-26T10:54:03;100082.02;;;6.05;38.41
49709;BME280;35601;55.902;13.606;2023-04-26T11:01:19;100081.72;;;6.19;37.92
49709;BME280;35601;55.902;13.606;2023-04-26T11:06:10;100086.50;;;6.80;37.78
49709;BME280;35601;55.902;13.606;2023-04-26T11:08:35;100088.20;;;7.22;38.68
49709;BME280;35601;55.902;13.606;2023-04-26T11:11:06;100092.17;;;6.87;37.69
49709;BME280;35601;55.902;13.606;2023-04-26T11:13:25;100091.04;;;6.96;37.09
49709;BME280;35601;55.902;13.606;2023-04-26T11:15:53;100083.53;;;7.08;38.05
49709;BME280;35601;55.902;13.606;2023-04-26T11:18:18;100084.55;;;7.49;37.87
49709;BME280;35601;55.902;13.606;2023-04-26T11:20:41;100084.99;;;7.95;38.00
49709;BME280;35601;55.902;13.606;2023-04-26T11:23:06;100079.31;;;8.09;37.96
49709;BME280;35601;55.902;13.606;2023-04-26T11:25:31;100083.33;;;8.49;35.67
49709;BME280;35601;55.902;13.606;2023-04-26T11:27:59;100099.76;;;8.69;34.81
49709;BME280;35601;55.902;13.606;2023-04-26T11:30:22;100093.74;;;8.74;35.50
49709;BME280;35601;55.902;13.606;2023-04-26T11:32:47;100095.16;;;8.63;35.68
49709;BME280;35601;55.902;13.606;2023-04-26T11:35:14;100098.69;;;9.35;35.99
49709;BME280;35601;55.902;13.606;2023-04-26T11:37:38;100102.21;;;9.58;35.52
49709;BME280;35601;55.902;13.606;2023-04-26T11:40:03;100110.66;;;9.76;35.80
49709;BME280;35601;55.902;13.606;2023-04-26T11:42:28;100105.54;;;9.31;35.42
49709;BME280;35601;55.902;13.606;2023-04-26T11:44:57;100107.87;;;8.84;34.71
49709;BME280;35601;55.902;13.606;2023-04-26T11:47:19;100105.92;;;8.14;33.87
49709;BME280;35601;55.902;13.606;2023-04-26T11:49:45;100115.04;;;7.86;34.00
49709;BME280;35601;55.902;13.606;2023-04-26T11:52:12;100126.78;;;7.92;35.25
49709;BME280;35601;55.902;13.606;2023-04-26T11:54:35;100104.89;;;7.62;34.96
49709;BME280;35601;55.902;13.606;2023-04-26T11:59:26;100143.81;;;7.44;35.63
49709;BME280;35601;55.902;13.606;2023-04-26T12:01:50;100142.99;;;6.83;36.86
49709;BME280;35601;55.902;13.606;2023-04-26T12:04:16;100142.40;;;7.00;37.81
49709;BME280;35601;55.902;13.606;2023-04-26T12:06:42;100137.13;;;6.77;40.00
49709;BME280;35601;55.902;13.606;2023-04-26T12:09:06;100142.80;;;6.81;41.02
49709;BME280;35601;55.902;13.606;2023-04-26T12:11:32;100147.64;;;7.03;41.49
49709;BME280;35601;55.902;13.606;2023-04-26T12:13:57;100145.79;;;6.45;39.75
49709;BME280;35601;55.902;13.606;2023-04-26T12:16:22;100143.91;;;6.54;41.35
49709;BME280;35601;55.902;13.606;2023-04-26T12:18:49;100144.78;;;6.49;40.22
49709;BME280;35601;55.902;13.606;2023-04-26T12:21:13;100145.73;;;6.07;38.14
49709;BME280;35601;55.902;13.606;2023-04-26T12:23:39;100145.11;;;6.44;39.69
49709;BME280;35601;55.902;13.606;2023-04-26T12:26:04;100144.93;;;7.18;38.60
49709;BME280;35601;55.902;13.606;2023-04-26T12:28:29;100142.78;;;7.20;37.05
49709;BME280;35601;55.902;13.606;2023-04-26T12:30:54;100155.16;;;6.98;37.58
49709;BME280;35601;55.902;13.606;2023-04-26T12:33:19;100160.51;;;6.84;37.08
49709;BME280;35601;55.902;13.606;2023-04-26T12:35:47;100167.63;;;6.59;38.62
49709;BME280;35601;55.902;13.606;2023-04-26T12:38:10;100163.68;;;6.21;38.78
49709;BME280;35601;55.902;13.606;2023-04-26T12:40:35;100166.74;;;5.57;39.09
49709;BME280;35601;55.902;13.606;2023-04-26T12:43:00;100162.58;;;5.60;40.90
49709;BME280;35601;55.902;13.606;2023-04-26T12:45:26;100167.90;;;5.83;40.55
49709;BME280;35601;55.902;13.606;2023-04-26T12:47:52;100177.05;;;5.88;40.08
49709;BME280;35601;55.902;13.606;2023-04-26T12:50:16;100179.06;;;5.66;44.74
49709;BME280;35601;55.902;13.606;2023-04-26T12:52:44;100173.37;;;5.84;43.31
49709;BME280;35601;55.902;13.606;2023-04-26T12:55:14;100170.93;;;6.41;43.28
49709;BME280;35601;55.902;13.606;2023-04-26T12:57:32;100158.71;;;6.56;41.53
49709;BME280;35601;55.902;13.606;2023-04-26T12:59:58;100157.17;;;7.17;41.04
49709;BME280;35601;55.902;13.606;2023-04-26T13:02:23;100154.29;;;6.75;38.77